KFMEKFDK

Guest
Details From KFME - Tipton
To KFDK - Frederick Muni
Flight Number -
Tags Routegen Generated
Created
Modified
Stats Distance 40 nm / 74 km
Max Altitude 100 ft / 30 m
Waypoints 5
Social Downloads 0
Likes 0
Share VATSIM

Download

Looking for another format? Having issues loading an existing format? Contact us
Advertisement - Login to hide

Notes

Departing runway 27 KFME. Arriving runway 4 KFDK.

Route

KFME +39.09_-076.86 +39.28_-077.08 +39.48_-077.31 KFDK

ID Type Via Altitude Latitude Longitude Leg Dist Tot Dist Heading (true) Name
O KFME APT - 0 ft / 0 m 39.08553˚ -76.76482˚ - 0 nm - TIPTON
+39.09_-076.86 LATLON - 100 ft / 30 m 39.09047˚ -76.85783˚ 4 nm 4 nm 274° / 274° -
+39.28_-077.08 LATLON - 100 ft / 30 m 39.28304˚ -77.08276˚ 15 nm 19 nm 318° / 318° -
+39.48_-077.31 LATLON - 100 ft / 30 m 39.47560˚ -77.30768˚ 15 nm 35 nm 318° / 318° -
O KFDK APT - 0 ft / 0 m 39.42050˚ -77.36843˚ 4 nm 39 nm 220° / 220° Frederick Muni

Altitude Profile

Advertisement - Login to hide

KFME

Details ICAO KFME (FME)
Name TIPTON
Region United States
Timezone America/New_York (UTC-5.0)
Stats Elevation 150 ft / 46 m (AMSL)
Location 39.085251° -76.759547°
Runways 1
Magnetic Variation 11.034° W

METAR

KFME 141445Z AUTO 30013G20KT 10SM SCT042 BKN055 05/M03 A2977 RMK AO1

Decode

TAF

Not found

Departure Runways

ID Width Length Bearing (true) Bearing (mag) Surface Threshold Offset Overrun Length
10 75 ft / 23 m 2,994 ft / 912 m 93.94° 104.97° Asphalt 0 ft / 0 m 300 ft / 91 m
28 75 ft / 23 m 2,994 ft / 912 m 273.95° 284.98° Asphalt 0 ft / 0 m 500 ft / 152 m

KFDK

Details ICAO KFDK
Name Frederick Muni
Region United States
Timezone America/New_York (UTC-5.0)
Stats Elevation 303 ft / 92 m (AMSL)
Location 39.418136° -77.374264°
Runways 2
Magnetic Variation 10.742° W

METAR

KFDK 141450Z COR 31015G20KT 10SM BKN038 03/M06 A2980

Decode

TAF

Not found

Destination Runways

ID Width Length Bearing (true) Bearing (mag) Surface Threshold Offset Overrun Length
05 100 ft / 30 m 5,222 ft / 1,592 m 40.39° 51.13° Asphalt 0 ft / 0 m 0 ft / 0 m
12 75 ft / 23 m 3,594 ft / 1,096 m 116.05° 126.79° Asphalt 0 ft / 0 m 0 ft / 0 m
23 100 ft / 30 m 5,222 ft / 1,592 m 220.39° 231.13° Asphalt 0 ft / 0 m 0 ft / 0 m
30 75 ft / 23 m 3,594 ft / 1,096 m 296.06° 306.80° Asphalt 0 ft / 0 m 0 ft / 0 m

Approach Navaids

Runway Type Ident Frequency Range Bearing (true) Bearing (mag) Slope Elevation
23 Localiser IFDK 110.30 MHz 18 nm / 33 km 220.38° 231.12° - 303 ft / 92 m (AMSL)
23 Glidescope IFDK 110.30 MHz 10 nm / 19 km 220.39° 231.13° 3.00° 288 ft / 88 m (AMSL)